Time;durP1;ratioP1;P1;durP2;ratioP2;P2;SDS_P1;SDS_P2;PMS_P1;PMS_P2;Temp;Humidity;BMP_temperature;BMP_pressure;BME280_temperature;BME280_humidity;BME280_pressure;Samples;Min_cycle;Max_cycle;Signal;HPM_P1;HPM_P2
2023/03/04 00:02:28;;;;;;;;;;;;;;;1.31;100.00;100485.91;5589890;31;34319;-65
2023/03/04 00:05:39;;;;;;;;;;;;;;;1.33;100.00;100487.56;5589989;31;34349;-65
2023/03/04 00:08:48;;;;;;;;;;;;;;;1.38;100.00;100482.88;5589822;31;35077;-65
2023/03/04 00:11:59;;;;;;;;;;;;;;;1.53;100.00;100481.78;5588908;31;34231;-65
2023/03/04 00:15:06;;;;;;;;;;;;;;;1.47;100.00;100482.22;5589956;31;34760;-65
2023/03/04 00:18:10;;;;;;;;;;;;;;;1.51;100.00;100481.91;5589092;31;34458;-65
2023/03/04 00:21:18;;;;;;;;;;;;;;;1.53;100.00;100480.03;5589099;31;34317;-65
2023/03/04 00:24:24;;;;;;;;;;;;;;;1.76;100.00;100473.16;5589851;31;33959;-65
2023/03/04 00:27:27;;;;;;;;;;;;;;;1.65;100.00;100470.47;5589818;31;34549;-65
2023/03/04 00:30:34;;;;;;;;;;;;;;;1.68;97.95;100473.72;5589190;31;34585;-65
2023/03/04 00:33:39;;;;;;;;;;;;;;;2.10;94.43;100480.25;5590226;31;34591;-65
2023/03/04 00:36:48;;;;;;;;;;;;;;;2.19;92.48;100476.97;5589806;31;34588;-65
2023/03/04 00:39:53;;;;;;;;;;;;;;;2.17;91.45;100473.63;5589423;31;35059;-65
2023/03/04 00:43:04;;;;;;;;;;;;;;;1.99;93.01;100471.50;5589234;31;34882;-65
2023/03/04 00:46:10;;;;;;;;;;;;;;;2.08;91.53;100473.47;5589898;31;34275;-65
2023/03/04 00:49:14;;;;;;;;;;;;;;;1.93;91.63;100471.97;5589048;31;34695;-65
2023/03/04 00:52:21;;;;;;;;;;;;;;;1.81;92.55;100472.81;5589902;31;34883;-66
2023/03/04 00:55:29;;;;;;;;;;;;;;;1.99;90.56;100471.50;5589835;31;34981;-65
2023/03/04 00:58:36;;;;;;;;;;;;;;;2.08;89.03;100466.44;5588917;31;34937;-65
2023/03/04 01:01:43;;;;;;;;;;;;;;;2.01;88.87;100467.84;5589602;31;34142;-65
2023/03/04 01:04:49;;;;;;;;;;;;;;;2.11;86.91;100463.59;5588896;31;34326;-65
2023/03/04 01:08:00;;;;;;;;;;;;;;;2.12;83.99;100462.66;5588831;31;34239;-65
2023/03/04 01:11:08;;;;;;;;;;;;;;;2.37;78.81;100455.62;5589217;31;35050;-65
2023/03/04 01:14:15;;;;;;;;;;;;;;;2.38;77.44;100460.72;5588876;31;34522;-65
2023/03/04 01:17:19;;;;;;;;;;;;;;;2.15;78.64;100445.88;5588831;31;33978;-66
2023/03/04 01:20:28;;;;;;;;;;;;;;;1.99;79.96;100447.94;5589759;31;34274;-65
2023/03/04 01:23:42;;;;;;;;;;;;;;;2.06;79.44;100438.72;5589411;31;34210;-65
2023/03/04 01:26:50;;;;;;;;;;;;;;;2.21;78.52;100445.44;5588552;31;34861;-65
2023/03/04 01:29:58;;;;;;;;;;;;;;;2.24;78.26;100439.12;5588700;31;34246;-65
2023/03/04 01:33:09;;;;;;;;;;;;;;;2.16;78.25;100437.09;5576325;31;34853;-65
2023/03/04 01:36:14;;;;;;;;;;;;;;;2.02;78.91;100435.50;5588467;31;34830;-65
2023/03/04 01:39:24;;;;;;;;;;;;;;;1.79;81.23;100436.34;5589203;31;34831;-65
2023/03/04 01:42:33;;;;;;;;;;;;;;;1.95;76.92;100434.25;5588301;31;35181;-65
2023/03/04 01:45:42;;;;;;;;;;;;;;;1.71;78.48;100433.41;5588973;31;34560;-65
2023/03/04 01:48:51;;;;;;;;;;;;;;;1.64;78.23;100424.34;5588875;31;34498;-65
2023/03/04 01:52:02;;;;;;;;;;;;;;;1.80;77.17;100424.91;5588848;31;34244;-65
2023/03/04 01:55:15;;;;;;;;;;;;;;;1.80;76.65;100419.66;5589109;31;34528;-65
2023/03/04 01:58:28;;;;;;;;;;;;;;;1.99;74.14;100424.41;5588190;31;33636;-65
2023/03/04 02:01:37;;;;;;;;;;;;;;;2.09;71.84;100414.94;5587978;31;34299;-65
2023/03/04 02:04:48;;;;;;;;;;;;;;;2.01;72.68;100405.03;5588105;31;34132;-65
2023/03/04 02:07:55;;;;;;;;;;;;;;;1.84;72.31;100410.66;5588510;31;33491;-65
2023/03/04 02:11:05;;;;;;;;;;;;;;;2.01;69.96;100412.88;5587803;31;34602;-65
2023/03/04 02:14:15;;;;;;;;;;;;;;;1.88;70.21;100412.12;5587494;31;33914;-66
2023/03/04 02:17:27;;;;;;;;;;;;;;;2.04;69.33;100398.72;5588479;31;34166;-65
2023/03/04 02:20:47;;;;;;;;;;;;;;;2.03;68.76;100407.56;5575281;31;33064;-65
2023/03/04 02:24:03;;;;;;;;;;;;;;;1.86;69.61;100400.09;5587520;31;34347;-65
2023/03/04 02:27:12;;;;;;;;;;;;;;;1.82;68.76;100396.87;5587589;31;34837;-66
2023/03/04 02:30:21;;;;;;;;;;;;;;;1.95;68.39;100394.19;5588082;31;34293;-65
2023/03/04 02:33:27;;;;;;;;;;;;;;;1.77;68.99;100380.69;5587515;31;34204;-65
2023/03/04 02:36:39;;;;;;;;;;;;;;;1.73;68.66;100387.91;5587464;31;35500;-65
2023/03/04 02:39:48;;;;;;;;;;;;;;;1.90;68.05;100383.22;5588224;31;34716;-66
2023/03/04 02:42:55;;;;;;;;;;;;;;;1.77;70.12;100382.44;5588106;31;33210;-66
2023/03/04 02:46:03;;;;;;;;;;;;;;;1.73;70.04;100382.69;5590698;31;35017;-65
2023/03/04 02:49:10;;;;;;;;;;;;;;;1.63;70.74;100378.22;5590794;31;33796;-66
2023/03/04 02:52:21;;;;;;;;;;;;;;;1.72;70.57;100367.09;5590078;31;34287;-66
2023/03/04 02:55:28;;;;;;;;;;;;;;;1.69;70.86;100375.19;5590882;31;34193;-65
2023/03/04 02:58:37;;;;;;;;;;;;;;;1.49;72.73;100374.00;5590886;31;34143;-65
2023/03/04 03:01:52;;;;;;;;;;;;;;;1.55;71.48;100370.13;5590027;31;34317;-65
2023/03/04 03:05:00;;;;;;;;;;;;;;;1.64;70.65;100369.44;5590651;31;34275;-65
2023/03/04 03:08:09;;;;;;;;;;;;;;;1.59;70.36;100368.94;5591015;31;34280;-66
2023/03/04 03:11:16;;;;;;;;;;;;;;;1.59;69.91;100368.94;5590550;31;34695;-66
2023/03/04 03:14:23;;;;;;;;;;;;;;;1.62;69.78;100355.63;5589878;31;34026;-65
2023/03/04 03:17:33;;;;;;;;;;;;;;;1.60;70.61;100349.66;5590497;31;34968;-66
2023/03/04 03:20:40;;;;;;;;;;;;;;;1.53;70.22;100354.53;5590553;31;34775;-65
2023/03/04 03:23:48;;;;;;;;;;;;;;;1.40;71.72;100356.38;5590358;31;34306;-65
2023/03/04 03:26:55;;;;;;;;;;;;;;;1.37;72.28;100347.88;5590405;31;34256;-65
2023/03/04 03:30:06;;;;;;;;;;;;;;;1.45;71.95;100349.03;5590629;31;34732;-66
2023/03/04 03:33:14;;;;;;;;;;;;;;;1.45;71.96;100333.34;5589553;31;34345;-66
2023/03/04 03:36:21;;;;;;;;;;;;;;;1.30;72.65;100340.50;5590493;31;34305;-65
2023/03/04 03:39:32;;;;;;;;;;;;;;;1.39;72.69;100336.41;5590328;31;34908;-65
2023/03/04 03:42:39;;;;;;;;;;;;;;;1.34;72.99;100341.13;5577182;31;34295;-65
2023/03/04 03:45:45;;;;;;;;;;;;;;;1.29;74.13;100338.00;5589952;31;34323;-64
2023/03/04 03:48:54;;;;;;;;;;;;;;;1.25;75.48;100341.78;5590180;31;35080;-65
2023/03/04 03:52:02;;;;;;;;;;;;;;;1.15;76.38;100346.00;5590283;31;34743;-65
2023/03/04 03:55:11;;;;;;;;;;;;;;;1.22;75.70;100334.97;5588464;31;34145;-65
2023/03/04 03:58:18;;;;;;;;;;;;;;;1.22;76.73;100332.37;5590121;31;34139;-65
2023/03/04 04:01:28;;;;;;;;;;;;;;;1.11;77.41;100336.69;5590193;31;34251;-65
2023/03/04 04:04:35;;;;;;;;;;;;;;;1.15;78.10;100331.16;5589318;31;34906;-65
2023/03/04 04:07:43;;;;;;;;;;;;;;;1.15;79.16;100339.00;5556396;31;1041168;-65
2023/03/04 04:10:51;;;;;;;;;;;;;;;1.24;79.01;100327.03;5584736;31;34321;-65
2023/03/04 04:13:58;;;;;;;;;;;;;;;1.28;78.82;100336.31;5589980;31;34362;-65
2023/03/04 04:17:08;;;;;;;;;;;;;;;1.16;80.01;100327.56;5590036;31;34951;-65
2023/03/04 04:20:17;;;;;;;;;;;;;;;1.07;80.69;100330.84;5589833;31;34673;-65
2023/03/04 04:23:23;;;;;;;;;;;;;;;1.04;81.65;100338.06;5590058;31;33036;-64
2023/03/04 04:26:32;;;;;;;;;;;;;;;1.12;81.47;100336.56;5589988;31;35516;-64
2023/03/04 04:29:38;;;;;;;;;;;;;;;1.16;80.91;100338.03;5589290;31;34886;-65
2023/03/04 04:32:46;;;;;;;;;;;;;;;1.15;81.40;100333.75;5589286;31;34855;-65
2023/03/04 04:35:53;;;;;;;;;;;;;;;1.12;82.87;100330.50;5589827;31;34944;-65
2023/03/04 04:39:03;;;;;;;;;;;;;;;1.15;83.63;100336.38;5589165;31;34346;-64
2023/03/04 04:42:12;;;;;;;;;;;;;;;1.07;85.48;100335.22;5576847;31;34223;-64
2023/03/04 04:45:20;;;;;;;;;;;;;;;1.11;86.67;100326.25;5589727;31;34299;-65
2023/03/04 04:48:29;;;;;;;;;;;;;;;1.08;86.85;100332.50;5588803;31;32742;-64
2023/03/04 04:51:38;;;;;;;;;;;;;;;1.00;89.17;100324.41;5589707;31;34007;-66
2023/03/04 04:54:49;;;;;;;;;;;;;;;0.97;90.40;100329.81;5589048;31;34357;-66
2023/03/04 04:57:55;;;;;;;;;;;;;;;0.89;92.26;100334.75;5589681;31;34145;-66
2023/03/04 05:01:03;;;;;;;;;;;;;;;0.90;92.83;100323.38;5589707;31;34751;-64
2023/03/04 05:04:10;;;;;;;;;;;;;;;0.91;93.60;100314.59;5588726;31;34794;-64
2023/03/04 05:07:17;;;;;;;;;;;;;;;0.85;95.14;100318.47;5588315;31;34303;-64
2023/03/04 05:10:22;;;;;;;;;;;;;;;0.78;95.77;100324.22;5589331;31;34386;-66
2023/03/04 05:13:31;;;;;;;;;;;;;;;0.74;97.00;100326.22;5589426;31;34319;-65
2023/03/04 05:16:38;;;;;;;;;;;;;;;0.80;98.14;100328.41;5588710;31;34241;-65
2023/03/04 05:19:45;;;;;;;;;;;;;;;0.87;97.79;100329.63;5588490;31;33333;-64
2023/03/04 05:22:52;;;;;;;;;;;;;;;0.96;97.98;100330.78;5589560;31;35128;-64
2023/03/04 05:26:03;;;;;;;;;;;;;;;1.01;98.05;100326.06;5589331;31;34807;-63
2023/03/04 05:29:09;;;;;;;;;;;;;;;1.13;97.32;100287.78;5588542;31;34273;-65
2023/03/04 05:32:19;;;;;;;;;;;;;;;1.07;97.70;100333.44;5589273;31;34353;-66
2023/03/04 05:35:25;;;;;;;;;;;;;;;1.03;98.40;100331.16;5589215;31;34344;-66
2023/03/04 05:38:36;;;;;;;;;;;;;;;1.05;98.20;100332.75;5589185;31;34416;-65
2023/03/04 05:41:43;;;;;;;;;;;;;;;1.01;98.03;100336.53;5575562;31;32470;-65
2023/03/04 05:44:51;;;;;;;;;;;;;;;0.97;98.42;100329.00;5588361;31;34917;-64
2023/03/04 05:47:58;;;;;;;;;;;;;;;0.94;99.26;100327.44;5588385;31;34572;-65
2023/03/04 05:51:06;;;;;;;;;;;;;;;0.88;100.00;100343.53;5588933;31;34894;-64
2023/03/04 05:54:12;;;;;;;;;;;;;;;0.91;100.00;100330.28;5589253;31;34488;-66
2023/03/04 05:57:19;;;;;;;;;;;;;;;0.92;100.00;100329.31;5588839;31;34903;-64
2023/03/04 06:00:28;;;;;;;;;;;;;;;1.01;100.00;100333.91;5588701;31;34814;-65
2023/03/04 06:03:37;;;;;;;;;;;;;;;1.08;100.00;100335.13;5587974;31;34277;-64
2023/03/04 06:06:42;;;;;;;;;;;;;;;1.16;100.00;100350.28;5574833;31;34318;-65
2023/03/04 06:09:49;;;;;;;;;;;;;;;1.24;99.37;100343.56;5588016;31;34286;-65
2023/03/04 06:12:58;;;;;;;;;;;;;;;1.38;98.34;100350.41;5588619;31;35039;-66
2023/03/04 06:16:07;;;;;;;;;;;;;;;1.44;98.04;100355.19;5588259;31;34601;-65
2023/03/04 06:19:15;;;;;;;;;;;;;;;1.63;96.98;100360.75;5589300;31;35493;-65
2023/03/04 06:22:20;;;;;;;;;;;;;;;1.81;95.07;100363.81;5590257;31;34892;-65
2023/03/04 06:25:27;;;;;;;;;;;;;;;1.86;94.51;100371.31;5589876;31;34520;-65
2023/03/04 06:28:37;;;;;;;;;;;;;;;1.90;93.87;100370.13;5589951;31;34913;-65
2023/03/04 06:31:47;;;;;;;;;;;;;;;1.89;94.11;100361.44;5590138;31;34993;-65
2023/03/04 06:34:58;;;;;;;;;;;;;;;1.96;93.64;100375.75;5590938;31;34906;-66
2023/03/04 06:38:05;;;;;;;;;;;;;;;2.09;93.27;100370.44;5591047;31;34845;-66
2023/03/04 06:41:13;;;;;;;;;;;;;;;2.38;91.09;100373.50;5590184;31;34134;-66
2023/03/04 06:44:21;;;;;;;;;;;;;;;2.49;90.54;100371.75;5590110;31;34202;-66
2023/03/04 06:47:29;;;;;;;;;;;;;;;2.70;88.28;100377.13;5590935;31;34195;-66
2023/03/04 06:50:38;;;;;;;;;;;;;;;2.86;87.91;100388.09;5590440;31;34939;-66
2023/03/04 06:53:48;;;;;;;;;;;;;;;3.14;84.65;100378.09;5590829;31;34388;-66
2023/03/04 06:56:57;;;;;;;;;;;;;;;3.40;81.90;100389.97;5590499;31;34840;-66
2023/03/04 07:00:08;;;;;;;;;;;;;;;3.60;79.61;100383.97;5590051;31;34359;-66
2023/03/04 07:03:15;;;;;;;;;;;;;;;3.57;79.76;100388.63;5589857;31;34275;-66
2023/03/04 07:06:25;;;;;;;;;;;;;;;3.25;82.76;100378.06;5590658;31;34190;-66
2023/03/04 07:09:35;;;;;;;;;;;;;;;2.98;84.62;100383.69;5590515;31;34177;-66
2023/03/04 07:12:42;;;;;;;;;;;;;;;2.84;85.77;100373.44;5590502;31;34770;-66
2023/03/04 07:15:51;;;;;;;;;;;;;;;2.81;87.11;100371.09;5590598;31;34846;-66
2023/03/04 07:19:00;;;;;;;;;;;;;;;2.81;87.40;100374.50;5577540;31;34117;-66
2023/03/04 07:22:09;;;;;;;;;;;;;;;2.95;87.01;100381.31;5589843;31;34300;-66
2023/03/04 07:25:17;;;;;;;;;;;;;;;2.94;87.28;100372.63;5590391;31;34196;-66
2023/03/04 07:28:23;;;;;;;;;;;;;;;3.02;86.77;100379.87;5589398;31;34631;-65
2023/03/04 07:31:35;;;;;;;;;;;;;;;3.15;86.19;100367.47;5590283;31;34323;-64
2023/03/04 07:34:47;;;;;;;;;;;;;;;3.15;86.07;100383.19;5589749;31;34700;-65
2023/03/04 07:37:54;;;;;;;;;;;;;;;3.42;84.01;100380.19;5577236;31;34406;-67
2023/03/04 07:41:04;;;;;;;;;;;;;;;3.42;84.07;100375.78;5589857;31;34731;-65
2023/03/04 07:44:15;;;;;;;;;;;;;;;3.77;80.84;100370.34;5590017;31;34899;-66
2023/03/04 07:47:21;;;;;;;;;;;;;;;4.74;73.53;100369.22;5590118;31;34658;-65
2023/03/04 07:50:29;;;;;;;;;;;;;;;5.42;67.46;100368.47;5577185;31;34247;-65
2023/03/04 07:53:38;;;;;;;;;;;;;;;6.04;63.84;100359.44;5590533;31;34506;-65
2023/03/04 07:56:45;;;;;;;;;;;;;;;6.35;61.90;100365.34;5590479;31;34900;-66
2023/03/04 07:59:51;;;;;;;;;;;;;;;6.89;57.47;100362.03;5589938;31;34804;-66
2023/03/04 08:03:00;;;;;;;;;;;;;;;7.03;56.60;100358.91;5589437;31;34921;-66
2023/03/04 08:06:10;;;;;;;;;;;;;;;7.52;54.28;100360.31;5589625;31;34522;-66
2023/03/04 08:09:19;;;;;;;;;;;;;;;8.27;51.73;100365.19;5589788;31;34936;-65
2023/03/04 08:12:25;;;;;;;;;;;;;;;8.31;51.25;100365.72;5589191;31;34359;-65
2023/03/04 08:15:34;;;;;;;;;;;;;;;8.07;51.49;100360.22;5590203;31;34144;-66
2023/03/04 08:18:49;;;;;;;;;;;;;;;7.77;52.00;100370.16;5590015;31;34141;-65
2023/03/04 08:21:56;;;;;;;;;;;;;;;8.95;49.44;100380.38;5589216;31;34093;-65
2023/03/04 08:25:04;;;;;;;;;;;;;;;8.80;49.43;100371.34;5588934;31;33075;-66
2023/03/04 08:28:12;;;;;;;;;;;;;;;8.05;50.12;100365.63;5589811;31;33982;-66
2023/03/04 08:31:20;;;;;;;;;;;;;;;9.00;48.25;100375.44;5589685;31;34354;-65
2023/03/04 08:34:28;;;;;;;;;;;;;;;9.33;46.50;100373.75;5589892;31;34604;-66
2023/03/04 08:37:39;;;;;;;;;;;;;;;8.98;47.83;100364.16;5589978;31;34318;-65
2023/03/04 08:40:44;;;;;;;;;;;;;;;9.33;47.26;100364.00;5589008;31;34940;-65
2023/03/04 08:43:54;;;;;;;;;;;;;;;10.37;43.96;100370.47;5589005;31;33352;-65
2023/03/04 08:47:02;;;;;;;;;;;;;;;9.72;45.37;100366.09;5588990;31;32626;-67
2023/03/04 08:50:10;;;;;;;;;;;;;;;9.64;45.90;100361.59;5588351;31;35077;-67
2023/03/04 08:53:19;;;;;;;;;;;;;;;8.51;47.47;100355.78;5589877;31;34824;-66
2023/03/04 08:56:29;;;;;;;;;;;;;;;7.59;50.48;100355.28;5588728;31;33417;-67
2023/03/04 08:59:36;;;;;;;;;;;;;;;6.78;52.64;100344.56;5588693;31;34878;-67
2023/03/04 09:02:43;;;;;;;;;;;;;;;6.43;54.44;100349.69;5589236;31;34512;-67
2023/03/04 09:05:53;;;;;;;;;;;;;;;6.31;54.36;100343.75;5589605;31;34373;-67
2023/03/04 09:08:58;;;;;;;;;;;;;;;6.22;55.53;100333.22;5588472;31;33818;-67
2023/03/04 09:12:05;;;;;;;;;;;;;;;6.28;55.22;100330.84;5589461;31;34286;-66
2023/03/04 09:15:13;;;;;;;;;;;;;;;6.16;56.00;100334.59;5589635;31;34126;-67
2023/03/04 09:18:20;;;;;;;;;;;;;;;6.23;56.14;100326.97;5589115;31;34997;-67
2023/03/04 09:21:29;;;;;;;;;;;;;;;6.28;56.41;100333.50;5589500;31;34912;-66
2023/03/04 09:24:37;;;;;;;;;;;;;;;6.31;56.63;100332.37;5588714;31;34871;-67
2023/03/04 09:27:44;;;;;;;;;;;;;;;6.15;57.36;100327.66;5588337;31;33294;-65
2023/03/04 09:30:50;;;;;;;;;;;;;;;6.34;57.43;100322.37;5589378;31;34486;-67
2023/03/04 09:33:59;;;;;;;;;;;;;;;6.55;57.32;100324.81;5589110;31;35081;-67
2023/03/04 09:37:06;;;;;;;;;;;;;;;6.68;57.20;100319.25;5589278;31;34419;-66
2023/03/04 09:40:16;;;;;;;;;;;;;;;6.68;57.32;100320.03;5588969;31;34263;-66
2023/03/04 09:43:28;;;;;;;;;;;;;;;6.85;56.82;100321.94;5588474;31;34527;-66
2023/03/04 09:46:38;;;;;;;;;;;;;;;6.84;57.00;100312.38;5589107;31;34614;-66
2023/03/04 09:49:56;;;;;;;;;;;;;;;6.78;56.83;100312.94;5588840;31;35055;-66
2023/03/04 09:53:19;;;;;;;;;;;;;;;6.88;56.35;100311.09;5587671;31;34308;-67
2023/03/04 09:56:24;;;;;;;;;;;;;;;6.92;55.87;100301.91;5575059;31;32987;-66
2023/03/04 09:59:37;;;;;;;;;;;;;;;6.88;56.39;100316.38;5588326;31;34307;-66
2023/03/04 10:02:51;;;;;;;;;;;;;;;6.91;56.52;100305.53;5588578;31;34891;-66
2023/03/04 10:06:04;;;;;;;;;;;;;;;6.88;55.97;100300.53;5588527;31;35242;-66
2023/03/04 10:09:12;;;;;;;;;;;;;;;7.03;56.28;100303.53;5588312;31;34934;-67
2023/03/04 10:12:22;;;;;;;;;;;;;;;7.20;56.04;100301.91;5588524;31;34836;-67
2023/03/04 10:15:30;;;;;;;;;;;;;;;7.19;55.97;100295.81;5588326;31;34302;-67
2023/03/04 10:18:48;;;;;;;;;;;;;;;7.23;56.13;100310.34;5588642;31;34299;-66
2023/03/04 10:21:54;;;;;;;;;;;;;;;7.14;56.10;100295.41;5588457;31;34835;-67
2023/03/04 10:25:14;;;;;;;;;;;;;;;7.23;55.98;100280.50;5588179;31;34298;-66
2023/03/04 10:28:19;;;;;;;;;;;;;;;7.25;56.25;100291.75;5574505;31;34185;-67
2023/03/04 10:31:35;;;;;;;;;;;;;;;7.19;56.52;100274.69;5588225;31;33959;-65
2023/03/04 10:34:41;;;;;;;;;;;;;;;7.24;56.27;100298.84;5588271;31;34798;-67
2023/03/04 10:37:49;;;;;;;;;;;;;;;7.36;56.41;100283.59;5588185;31;34262;-66
2023/03/04 10:40:57;;;;;;;;;;;;;;;7.35;56.68;100279.31;5588178;31;34982;-67
2023/03/04 10:44:14;;;;;;;;;;;;;;;7.28;57.09;100272.97;5588034;31;34199;-66
2023/03/04 10:47:23;;;;;;;;;;;;;;;7.46;56.99;100267.69;5587232;31;34707;-66
2023/03/04 10:50:28;;;;;;;;;;;;;;;7.58;56.49;100275.25;5586829;31;34795;-66
2023/03/04 10:53:37;;;;;;;;;;;;;;;7.40;55.93;100255.97;5587799;31;34623;-67
2023/03/04 10:56:53;;;;;;;;;;;;;;;7.56;55.92;100269.28;5574553;31;34207;-66
2023/03/04 11:00:16;;;;;;;;;;;;;;;7.72;54.04;100250.97;5587128;31;34332;-66
2023/03/04 11:03:29;;;;;;;;;;;;;;;7.76;53.40;100249.66;5587753;31;34763;-66
2023/03/04 11:06:39;;;;;;;;;;;;;;;7.98;52.18;100235.16;5589277;31;34926;-66
2023/03/04 11:09:47;;;;;;;;;;;;;;;8.14;52.53;100214.09;5590453;31;35151;-65
2023/03/04 11:13:16;;;;;;;;;;;;;;;8.17;52.27;100231.47;5590540;31;34164;-65
2023/03/04 11:16:28;;;;;;;;;;;;;;;8.37;51.53;100232.12;5589749;31;34720;-65
2023/03/04 11:19:39;;;;;;;;;;;;;;;8.49;51.02;100230.84;5590509;31;35488;-66
2023/03/04 11:22:48;;;;;;;;;;;;;;;9.77;47.96;100232.16;5589697;31;34239;-66
2023/03/04 11:26:02;;;;;;;;;;;;;;;12.27;41.78;100239.84;5590446;31;34938;-66
2023/03/04 11:29:21;;;;;;;;;;;;;;;12.80;40.37;100230.75;5589759;31;34434;-66
2023/03/04 11:32:29;;;;;;;;;;;;;;;13.72;37.69;100234.44;5590436;31;34298;-67
2023/03/04 11:35:57;;;;;;;;;;;;;;;15.02;35.43;100224.81;5590556;31;34207;-67
2023/03/04 11:39:06;;;;;;;;;;;;;;;14.68;34.78;100211.50;5590191;31;34451;-68
2023/03/04 11:42:25;;;;;;;;;;;;;;;15.28;34.21;100212.56;5589264;31;33968;-66
2023/03/04 11:45:55;;;;;;;;;;;;;;;15.56;34.41;100215.94;5589368;31;34296;-66
2023/03/04 11:49:20;;;;;;;;;;;;;;;15.76;32.92;100219.44;5589453;31;34780;-66
2023/03/04 11:52:34;;;;;;;;;;;;;;;16.64;32.25;100199.38;5590178;31;34852;-68
2023/03/04 11:55:41;;;;;;;;;;;;;;;15.70;33.01;100198.84;5589295;31;34216;-67
2023/03/04 11:58:54;;;;;;;;;;;;;;;17.27;30.81;100192.28;5590309;31;34963;-66
2023/03/04 12:02:00;;;;;;;;;;;;;;;18.70;28.96;100197.63;5590491;31;34737;-68
2023/03/04 12:05:14;;;;;;;;;;;;;;;17.62;30.12;100189.97;5589238;31;34343;-69
2023/03/04 12:08:28;;;;;;;;;;;;;;;17.11;30.98;100194.62;5589024;31;34689;-66
2023/03/04 12:11:39;;;;;;;;;;;;;;;16.76;31.97;100186.13;5589373;31;33038;-66
2023/03/04 12:14:55;;;;;;;;;;;;;;;17.15;31.72;100180.56;5589871;31;34474;-68
2023/03/04 12:18:31;;;;;;;;;;;;;;;18.49;29.91;100174.72;5575735;31;33038;-66
2023/03/04 12:21:51;;;;;;;;;;;;;;;17.09;30.72;100176.06;5588925;31;34955;-68
2023/03/04 12:25:00;;;;;;;;;;;;;;;16.57;31.90;100147.66;5589650;31;34918;-67
2023/03/04 12:28:26;;;;;;;;;;;;;;;19.86;27.75;100152.28;5589212;31;34278;-67
2023/03/04 12:31:40;;;;;;;;;;;;;;;18.45;28.87;100138.56;5589821;31;34894;-69
2023/03/04 12:35:04;;;;;;;;;;;;;;;18.25;29.39;100136.13;5589375;31;34878;-68
2023/03/04 12:38:13;;;;;;;;;;;;;;;18.49;29.19;100121.00;5589772;31;34788;-68
2023/03/04 12:41:27;;;;;;;;;;;;;;;18.82;28.16;100125.97;5589661;31;34279;-67
2023/03/04 12:44:43;;;;;;;;;;;;;;;17.62;29.80;100127.47;5576513;31;32942;-67
2023/03/04 12:47:56;;;;;;;;;;;;;;;18.55;29.30;100114.72;5576351;31;33806;-66
2023/03/04 12:51:06;;;;;;;;;;;;;;;18.34;28.78;100117.88;5588694;31;34789;-66
2023/03/04 12:54:15;;;;;;;;;;;;;;;18.12;29.65;100120.97;5588416;31;34282;-66
2023/03/04 12:57:26;;;;;;;;;;;;;;;16.81;31.04;100108.63;5588904;31;34310;-65
2023/03/04 13:00:34;;;;;;;;;;;;;;;15.49;32.56;100106.25;5589257;31;34231;-66
2023/03/04 13:03:48;;;;;;;;;;;;;;;16.41;31.23;100116.00;5589616;31;34207;-67
2023/03/04 13:07:10;;;;;;;;;;;;;;;15.37;33.05;100102.56;5589565;31;34263;-65
2023/03/04 13:10:22;;;;;;;;;;;;;;;15.40;33.69;100099.47;5589427;31;34303;-66
2023/03/04 13:13:31;;;;;;;;;;;;;;;14.84;34.09;100088.34;5589606;31;34212;-66
2023/03/04 13:16:53;;;;;;;;;;;;;;;15.17;33.92;100077.69;5589558;31;34094;-66
2023/03/04 13:20:19;;;;;;;;;;;;;;;16.00;32.75;100090.38;5563434;31;35009;-65
2023/03/04 13:23:30;;;;;;;;;;;;;;;15.28;33.58;100069.06;5588688;31;34388;-65
2023/03/04 13:26:39;;;;;;;;;;;;;;;14.70;33.84;100067.97;5589444;31;34828;-65
2023/03/04 13:29:47;;;;;;;;;;;;;;;15.46;32.74;100061.22;5588492;31;33031;-66
2023/03/04 13:32:53;;;;;;;;;;;;;;;15.14;33.47;100048.72;5589344;31;34874;-65
2023/03/04 13:36:02;;;;;;;;;;;;;;;15.04;32.20;100053.63;5589267;31;34178;-65
2023/03/04 13:39:16;;;;;;;;;;;;;;;15.44;31.11;100038.44;5588508;31;34289;-66
2023/03/04 13:42:38;;;;;;;;;;;;;;;14.60;32.38;100030.97;5587876;31;33427;-65
2023/03/04 13:45:44;;;;;;;;;;;;;;;14.34;32.13;100023.69;5588337;31;34641;-66
2023/03/04 13:48:51;;;;;;;;;;;;;;;14.21;31.71;100028.97;5588105;31;34202;-66
2023/03/04 13:51:55;;;;;;;;;;;;;;;15.02;30.18;100021.78;5588717;31;34325;-68
2023/03/04 13:55:19;;;;;;;;;;;;;;;15.65;29.21;100032.84;5588053;31;34194;-66
2023/03/04 13:58:25;;;;;;;;;;;;;;;17.13;26.66;100021.84;5588806;31;34992;-64
2023/03/04 14:01:33;;;;;;;;;;;;;;;16.94;26.28;100022.81;5588971;31;34255;-67
2023/03/04 14:04:40;;;;;;;;;;;;;;;17.61;25.85;100013.16;5588651;31;34238;-66
2023/03/04 14:07:47;;;;;;;;;;;;;;;17.46;26.40;100010.81;5587756;31;34806;-66
2023/03/04 14:10:54;;;;;;;;;;;;;;;18.94;24.67;100009.34;5587895;31;34667;-66
2023/03/04 14:14:05;;;;;;;;;;;;;;;18.40;24.04;100004.13;5588580;31;34800;-66
2023/03/04 14:17:30;;;;;;;;;;;;;;;18.47;23.55;100005.69;5588345;31;34960;-66
2023/03/04 14:20:48;;;;;;;;;;;;;;;18.83;23.14;100002.06;5588621;31;33922;-66
2023/03/04 14:24:12;;;;;;;;;;;;;;;15.67;26.86;100005.91;5588145;31;34515;-67
2023/03/04 14:27:19;;;;;;;;;;;;;;;13.56;30.46;100002.81;5587575;31;34297;-67
2023/03/04 14:30:27;;;;;;;;;;;;;;;12.50;32.44;100017.06;5587612;31;34226;-66
2023/03/04 14:33:47;;;;;;;;;;;;;;;12.02;33.56;100005.28;5587674;31;34192;-66
2023/03/04 14:36:58;;;;;;;;;;;;;;;11.35;35.39;100001.88;5588121;31;34189;-66
2023/03/04 14:40:04;;;;;;;;;;;;;;;11.15;36.12;100004.25;5588944;31;34758;-66
2023/03/04 14:43:18;;;;;;;;;;;;;;;10.93;36.44;100010.44;5590979;31;34439;-64
2023/03/04 14:46:26;;;;;;;;;;;;;;;10.66;37.01;100003.81;5590659;31;34359;-65
2023/03/04 14:49:35;;;;;;;;;;;;;;;10.51;37.15;100010.88;5590474;31;34242;-65
2023/03/04 14:52:45;;;;;;;;;;;;;;;10.28;37.96;100005.56;5590694;31;35004;-65
2023/03/04 14:56:09;;;;;;;;;;;;;;;10.15;38.69;99999.16;5590090;31;34438;-65
2023/03/04 14:59:26;;;;;;;;;;;;;;;10.15;39.10;100010.59;5590470;31;34412;-65
2023/03/04 15:02:40;;;;;;;;;;;;;;;9.99;39.54;99992.94;5590744;31;34821;-66
2023/03/04 15:05:48;;;;;;;;;;;;;;;9.97;39.77;100007.38;5590035;31;34310;-69
2023/03/04 15:09:06;;;;;;;;;;;;;;;9.83;40.03;99995.66;5590602;31;34467;-66
2023/03/04 15:12:21;;;;;;;;;;;;;;;9.77;40.52;99999.03;5590578;31;34979;-66
2023/03/04 15:15:39;;;;;;;;;;;;;;;9.74;40.76;100003.81;5590265;31;34290;-65
2023/03/04 15:18:57;;;;;;;;;;;;;;;9.75;40.44;100013.41;5590931;31;34695;-66
2023/03/04 15:22:05;;;;;;;;;;;;;;;9.60;40.93;100005.38;5590943;31;34298;-66
2023/03/04 15:25:19;;;;;;;;;;;;;;;9.35;41.66;100001.94;5590571;31;33946;-66
2023/03/04 15:28:33;;;;;;;;;;;;;;;9.23;42.37;100003.31;5590014;31;35127;-65
2023/03/04 15:31:42;;;;;;;;;;;;;;;9.19;42.55;100007.28;5589705;31;34225;-65
2023/03/04 15:34:50;;;;;;;;;;;;;;;8.99;43.46;100009.47;5590610;31;34170;-64
2023/03/04 15:37:57;;;;;;;;;;;;;;;8.90;44.02;100004.34;5589498;31;34222;-65
2023/03/04 15:41:05;;;;;;;;;;;;;;;8.86;44.40;100006.47;5590377;31;34968;-64
2023/03/04 15:44:12;;;;;;;;;;;;;;;8.71;44.63;100003.66;5589468;31;34288;-65
2023/03/04 15:47:19;;;;;;;;;;;;;;;8.59;44.58;100005.00;5590245;31;34158;-65
2023/03/04 15:50:26;;;;;;;;;;;;;;;8.43;44.58;99996.19;5589565;31;34894;-66
2023/03/04 15:53:39;;;;;;;;;;;;;;;8.32;45.02;100007.09;5589684;31;34313;-64
2023/03/04 15:56:47;;;;;;;;;;;;;;;8.20;44.61;99998.63;5576824;31;32934;-64
2023/03/04 15:59:56;;;;;;;;;;;;;;;8.07;44.89;100004.38;5590051;31;34558;-65
2023/03/04 16:03:02;;;;;;;;;;;;;;;8.00;45.14;100002.50;5589513;31;34201;-64
2023/03/04 16:06:12;;;;;;;;;;;;;;;7.90;44.83;100010.56;5590023;31;34298;-65
2023/03/04 16:09:21;;;;;;;;;;;;;;;7.78;45.14;100001.28;5589399;31;33966;-65
2023/03/04 16:12:28;;;;;;;;;;;;;;;7.75;44.72;99996.31;5589311;31;34353;-65
2023/03/04 16:15:36;;;;;;;;;;;;;;;7.65;44.91;99983.25;5589335;31;32905;-65
2023/03/04 16:18:44;;;;;;;;;;;;;;;7.56;44.75;99983.34;5589955;31;34197;-65
2023/03/04 16:21:55;;;;;;;;;;;;;;;7.51;45.45;99993.56;5589121;31;34171;-65
2023/03/04 16:25:01;;;;;;;;;;;;;;;7.40;45.44;99987.59;5589899;31;34760;-65
2023/03/04 16:28:10;;;;;;;;;;;;;;;7.42;45.38;99990.91;5576677;31;34303;-64